createdAt,value
2022-12-06T00:01:17.033Z,101649.69
2022-12-06T00:03:46.120Z,101648.16
2022-12-06T00:06:18.369Z,101639.69
2022-12-06T00:08:46.476Z,101637.94
2022-12-06T00:11:16.421Z,101635.69
2022-12-06T00:13:43.665Z,101636.75
2022-12-06T00:16:13.443Z,101638.16
2022-12-06T00:18:42.072Z,101634.53
2022-12-06T00:21:15.606Z,101633.06
2022-12-06T00:23:45.913Z,101633.84
2022-12-06T00:26:14.298Z,101633.78
2022-12-06T00:28:42.034Z,101631.00
2022-12-06T00:31:13.176Z,101629.00
2022-12-06T00:33:40.062Z,101633.91
2022-12-06T00:36:16.509Z,101624.78
2022-12-06T00:38:43.504Z,101625.84
2022-12-06T00:41:18.716Z,101627.00
2022-12-06T00:43:46.508Z,101621.06
2022-12-06T00:46:17.467Z,101620.97
2022-12-06T00:48:45.525Z,101616.38
2022-12-06T00:51:13.344Z,101600.81
2022-12-06T00:53:40.565Z,101603.19
2022-12-06T00:56:07.567Z,101595.78
2022-12-06T00:58:35.088Z,101589.06
2022-12-06T01:01:13.259Z,101587.38
2022-12-06T01:03:40.852Z,101595.66
2022-12-06T01:06:09.957Z,101592.06
2022-12-06T01:08:37.767Z,101591.97
2022-12-06T01:11:05.749Z,101589.75
2022-12-06T01:13:33.102Z,101588.47
2022-12-06T01:16:15.145Z,101594.28
2022-12-06T01:18:43.810Z,101584.78
2022-12-06T01:21:21.108Z,101587.34
2022-12-06T01:23:49.124Z,101592.69
2022-12-06T01:26:21.495Z,101580.91
2022-12-06T01:28:48.655Z,101585.19
2022-12-06T01:31:16.059Z,101570.94
2022-12-06T01:33:43.862Z,101578.28
2022-12-06T01:36:21.578Z,101564.56
2022-12-06T01:38:53.141Z,101559.69
2022-12-06T01:41:21.781Z,101563.28
2022-12-06T01:43:49.324Z,101560.13
2022-12-06T01:46:25.262Z,101557.25
2022-12-06T01:49:03.928Z,101541.44
2022-12-06T01:51:31.054Z,101544.38
2022-12-06T01:54:00.523Z,101544.19
2022-12-06T01:56:27.832Z,101547.41
2022-12-06T01:58:57.801Z,101550.88
2022-12-06T02:01:27.431Z,101549.91
2022-12-06T02:03:56.927Z,101544.31
2022-12-06T02:06:25.154Z,101544.81
2022-12-06T02:08:53.737Z,101548.06
2022-12-06T02:11:20.669Z,101542.34
2022-12-06T02:13:47.964Z,101541.16
2022-12-06T02:16:32.943Z,101532.63
2022-12-06T02:19:33.344Z,101536.88
2022-12-06T02:22:25.040Z,101530.19
2022-12-06T02:25:11.231Z,101531.91
2022-12-06T02:28:10.106Z,101530.25
2022-12-06T02:31:02.697Z,101525.56
2022-12-06T02:34:00.601Z,101526.22
2022-12-06T02:36:52.108Z,101527.44
2022-12-06T02:39:23.450Z,101521.06
2022-12-06T02:42:11.603Z,101521.41
2022-12-06T02:44:44.447Z,101526.69
2022-12-06T02:47:13.326Z,101521.06
2022-12-06T02:49:46.424Z,101525.56
2022-12-06T02:52:14.358Z,101524.31
2022-12-06T02:54:45.224Z,101527.94
2022-12-06T02:57:12.195Z,101525.66
2022-12-06T02:59:39.413Z,101526.34
2022-12-06T03:02:11.283Z,101525.44
2022-12-06T03:04:56.607Z,101521.00
2022-12-06T03:07:23.510Z,101527.94
2022-12-06T03:10:17.917Z,101520.31
2022-12-06T03:13:14.825Z,101519.22
2022-12-06T03:15:55.083Z,101520.22
2022-12-06T03:18:43.204Z,101523.06
2022-12-06T03:21:19.851Z,101524.78
2022-12-06T03:23:50.585Z,101521.44
2022-12-06T03:26:25.355Z,101528.44
2022-12-06T03:28:56.113Z,101522.81
2022-12-06T03:31:25.199Z,101534.84
2022-12-06T03:34:04.779Z,101529.63
2022-12-06T03:36:32.578Z,101523.09
2022-12-06T03:39:03.382Z,101525.34
2022-12-06T03:41:38.622Z,101523.78
2022-12-06T03:44:05.754Z,101527.28
2022-12-06T03:46:39.095Z,101530.97
2022-12-06T03:49:12.534Z,101525.34
2022-12-06T03:51:41.897Z,101524.19
2022-12-06T03:54:08.995Z,101526.16
2022-12-06T03:56:37.816Z,101530.47
2022-12-06T03:59:08.944Z,101520.94
2022-12-06T04:01:36.620Z,101528.69
2022-12-06T04:04:03.829Z,101516.16
2022-12-06T04:06:30.922Z,101517.13
2022-12-06T04:09:16.524Z,101512.00
2022-12-06T04:11:43.453Z,101509.69
2022-12-06T04:14:10.508Z,101515.44
2022-12-06T04:16:55.843Z,101508.34
2022-12-06T04:19:22.745Z,101515.16
2022-12-06T04:22:08.346Z,101515.56
2022-12-06T04:24:35.207Z,101513.06
2022-12-06T04:27:20.519Z,101515.56
2022-12-06T04:30:05.963Z,101524.81
2022-12-06T04:32:51.568Z,101532.94
2022-12-06T04:35:37.054Z,101524.00
2022-12-06T04:38:22.757Z,101524.91
2022-12-06T04:40:49.596Z,101521.31
2022-12-06T04:43:35.274Z,101515.09
2022-12-06T04:46:02.246Z,101527.78
2022-12-06T04:48:29.126Z,101528.09
2022-12-06T04:50:56.029Z,101522.69
2022-12-06T04:53:23.505Z,101519.19
2022-12-06T04:55:51.832Z,101521.72
2022-12-06T04:58:18.787Z,101521.22
2022-12-06T05:00:45.834Z,101521.53
2022-12-06T05:03:15.464Z,101525.41
2022-12-06T05:05:42.798Z,101520.75
2022-12-06T05:08:10.166Z,101524.19
2022-12-06T05:10:37.391Z,101523.47
2022-12-06T05:13:04.752Z,101518.28
2022-12-06T05:15:32.040Z,101517.25
2022-12-06T05:17:58.972Z,101514.84
2022-12-06T05:20:25.831Z,101521.22
2022-12-06T05:22:52.768Z,101512.50
2022-12-06T05:25:19.621Z,101513.19
2022-12-06T05:27:46.685Z,101513.13
2022-12-06T05:30:13.952Z,101512.34
2022-12-06T05:32:40.965Z,101518.59
2022-12-06T05:35:08.719Z,101512.50
2022-12-06T05:37:35.575Z,101511.63
2022-12-06T05:40:02.896Z,101514.25
2022-12-06T05:42:30.083Z,101517.72
2022-12-06T05:44:57.089Z,101518.69
2022-12-06T05:47:23.940Z,101512.44
2022-12-06T05:49:51.387Z,101519.53
2022-12-06T05:52:18.264Z,101518.47
2022-12-06T05:54:45.487Z,101515.81
2022-12-06T05:57:12.299Z,101514.25
2022-12-06T05:59:39.125Z,101510.84
2022-12-06T06:02:06.151Z,101516.19
2022-12-06T06:04:33.138Z,101518.59
2022-12-06T06:07:00.258Z,101523.22
2022-12-06T06:09:27.600Z,101521.22
2022-12-06T06:11:56.097Z,101519.34
2022-12-06T06:14:23.460Z,101517.69
2022-12-06T06:16:52.106Z,101526.41
2022-12-06T06:19:19.531Z,101517.03
2022-12-06T06:21:47.181Z,101515.88
2022-12-06T06:24:14.058Z,101522.94
2022-12-06T06:26:40.909Z,101516.28
2022-12-06T06:29:07.871Z,101522.47
2022-12-06T06:31:35.214Z,101519.19
2022-12-06T06:34:02.167Z,101520.91
2022-12-06T06:36:29.155Z,101521.13
2022-12-06T06:38:56.045Z,101510.09
2022-12-06T06:41:22.948Z,101514.41
2022-12-06T06:43:49.863Z,101514.03
2022-12-06T06:46:16.864Z,101512.94
2022-12-06T06:48:43.900Z,101517.63
2022-12-06T06:51:13.238Z,101514.22
2022-12-06T06:53:40.705Z,101512.56
2022-12-06T06:56:08.019Z,101507.19
2022-12-06T06:58:35.033Z,101515.41
2022-12-06T07:01:03.931Z,101512.75
2022-12-06T07:03:30.967Z,101512.97
2022-12-06T07:06:03.503Z,101512.28
2022-12-06T07:08:31.889Z,101511.38
2022-12-06T07:10:59.027Z,101509.88
2022-12-06T07:13:27.090Z,101515.28
2022-12-06T07:15:54.107Z,101507.81
2022-12-06T07:18:22.026Z,101502.53
2022-12-06T07:20:49.642Z,101505.97
2022-12-06T07:23:16.804Z,101506.75
2022-12-06T07:25:43.632Z,101495.50
2022-12-06T07:28:10.458Z,101497.81
2022-12-06T07:30:37.414Z,101506.31
2022-12-06T07:33:04.469Z,101497.56
2022-12-06T07:35:55.619Z,101507.94
2022-12-06T07:38:19.044Z,101499.09
2022-12-06T07:41:03.924Z,101499.91
2022-12-06T07:43:50.680Z,101501.97
2022-12-06T07:46:17.529Z,101502.19
2022-12-06T07:48:44.543Z,101499.81
2022-12-06T07:51:11.410Z,101494.16
2022-12-06T07:53:38.245Z,101493.97
2022-12-06T07:56:08.738Z,101499.00
2022-12-06T07:58:35.628Z,101495.66
2022-12-06T08:01:04.734Z,101496.78
2022-12-06T08:03:31.743Z,101501.25
2022-12-06T08:05:59.024Z,101480.31
2022-12-06T08:08:28.732Z,101486.34
2022-12-06T08:11:00.093Z,101481.97
2022-12-06T08:13:27.569Z,101477.69
2022-12-06T08:15:54.967Z,101475.78
2022-12-06T08:18:22.313Z,101470.00
2022-12-06T08:20:50.492Z,101459.63
2022-12-06T08:23:17.336Z,101454.47
2022-12-06T08:25:44.266Z,101464.50
2022-12-06T08:28:11.226Z,101458.69
2022-12-06T08:30:42.041Z,101457.94
2022-12-06T08:33:09.121Z,101465.13
2022-12-06T08:35:39.063Z,101470.50
2022-12-06T08:38:06.050Z,101473.78
2022-12-06T08:40:33.142Z,101463.66
2022-12-06T08:43:00.056Z,101455.66
2022-12-06T08:45:26.952Z,101459.34
2022-12-06T08:47:53.796Z,101452.53
2022-12-06T08:50:20.692Z,101450.81
2022-12-06T08:52:47.544Z,101447.28
2022-12-06T08:55:14.458Z,101452.66
2022-12-06T08:57:41.308Z,101438.28
2022-12-06T09:00:09.633Z,101442.22
2022-12-06T09:02:39.207Z,101433.16
2022-12-06T09:05:06.437Z,101438.84
2022-12-06T09:07:33.391Z,101436.25
2022-12-06T09:10:00.595Z,101432.41
2022-12-06T09:12:27.672Z,101420.22
2022-12-06T09:14:54.650Z,101421.00
2022-12-06T09:17:21.513Z,101424.50
2022-12-06T09:19:48.381Z,101421.81
2022-12-06T09:22:15.249Z,101413.16
2022-12-06T09:24:42.318Z,101415.22
2022-12-06T09:27:09.270Z,101408.72
2022-12-06T09:29:40.720Z,101400.97
2022-12-06T09:32:07.925Z,101395.88
2022-12-06T09:34:34.774Z,101390.97
2022-12-06T09:37:10.178Z,101391.53
2022-12-06T09:39:41.406Z,101390.63
2022-12-06T09:42:08.338Z,101387.78
2022-12-06T09:44:37.848Z,101386.28
2022-12-06T09:48:03.395Z,101385.09
2022-12-06T09:50:52.399Z,101376.31
2022-12-06T09:53:25.141Z,101378.97
2022-12-06T09:55:57.970Z,101374.19
2022-12-06T09:58:36.861Z,101375.75
2022-12-06T10:01:18.931Z,101378.34
2022-12-06T10:04:03.910Z,101372.00
2022-12-06T10:06:40.701Z,101363.34
2022-12-06T10:09:32.790Z,101357.47
2022-12-06T10:12:11.080Z,101357.25
2022-12-06T10:15:05.129Z,101344.09
2022-12-06T10:18:01.198Z,101345.78
2022-12-06T10:20:59.123Z,101335.41
2022-12-06T10:24:13.267Z,101335.56
2022-12-06T10:26:52.935Z,101336.28
2022-12-06T10:29:25.788Z,101330.81
2022-12-06T10:31:59.458Z,101325.69
2022-12-06T10:34:58.112Z,101314.97
2022-12-06T10:37:52.361Z,101321.19
2022-12-06T10:40:59.859Z,101312.66
2022-12-06T10:43:29.597Z,101307.31
2022-12-06T10:46:32.843Z,101310.75
2022-12-06T10:49:27.162Z,101308.94
2022-12-06T10:52:03.554Z,101304.56
2022-12-06T10:54:41.483Z,101306.50
2022-12-06T10:57:25.724Z,101307.31
2022-12-06T11:00:15.813Z,101295.97
2022-12-06T11:02:58.162Z,101302.06
2022-12-06T11:05:32.539Z,101297.50
2022-12-06T11:08:11.497Z,101297.59
2022-12-06T11:10:40.153Z,101288.09
2022-12-06T11:13:40.220Z,101289.72
2022-12-06T11:16:22.298Z,101280.81
2022-12-06T11:18:50.350Z,101276.38
2022-12-06T11:21:40.308Z,101283.38
2022-12-06T11:24:29.131Z,101269.63
2022-12-06T11:27:18.825Z,101273.16
2022-12-06T11:29:48.378Z,101274.88
2022-12-06T11:32:16.775Z,101267.03
2022-12-06T11:34:48.405Z,101263.59
2022-12-06T11:37:21.491Z,101264.38
2022-12-06T11:39:52.723Z,101263.53
2022-12-06T11:42:25.472Z,101253.66
2022-12-06T11:45:00.821Z,101259.75
2022-12-06T11:47:27.777Z,101260.63
2022-12-06T11:49:56.018Z,101258.81
2022-12-06T11:52:37.670Z,101253.66
2022-12-06T11:55:16.092Z,101252.81
2022-12-06T11:58:13.766Z,101251.13
2022-12-06T12:00:57.543Z,101245.06
2022-12-06T12:03:36.259Z,101251.13
2022-12-06T12:06:16.592Z,101248.56
2022-12-06T12:08:52.763Z,101251.19
2022-12-06T12:11:23.557Z,101253.75
2022-12-06T12:13:53.609Z,101251.00
2022-12-06T12:16:25.050Z,101250.22
2022-12-06T12:18:59.486Z,101238.84
2022-12-06T12:21:39.148Z,101245.78
2022-12-06T12:25:17.324Z,101251.88
2022-12-06T12:27:58.794Z,101243.19
2022-12-06T12:30:40.101Z,101238.72
2022-12-06T12:33:07.208Z,101243.16
2022-12-06T12:35:37.463Z,101232.75
2022-12-06T12:38:11.440Z,101229.22
2022-12-06T12:40:50.323Z,101226.78
2022-12-06T12:43:22.454Z,101222.41
2022-12-06T12:46:10.936Z,101220.63
2022-12-06T12:48:39.646Z,101217.97
2022-12-06T12:51:21.471Z,101212.72
2022-12-06T12:53:55.787Z,101211.84
2022-12-06T12:56:22.977Z,101217.91
2022-12-06T12:58:55.894Z,101211.84
2022-12-06T13:01:25.804Z,101211.03
2022-12-06T13:03:59.838Z,101208.34
2022-12-06T13:06:52.887Z,101213.53
2022-12-06T13:09:28.774Z,101213.47
2022-12-06T13:12:02.914Z,101203.03
2022-12-06T13:14:31.573Z,101204.75
2022-12-06T13:17:03.433Z,101201.22
2022-12-06T13:19:38.438Z,101198.47
2022-12-06T13:22:07.419Z,101194.09
2022-12-06T13:24:37.565Z,101192.41
2022-12-06T13:27:13.029Z,101189.91
2022-12-06T13:29:55.024Z,101204.78
2022-12-06T13:32:29.544Z,101185.53
2022-12-06T13:35:01.987Z,101182.94
2022-12-06T13:37:34.538Z,101194.22
2022-12-06T13:40:03.226Z,101186.44
2022-12-06T13:42:30.194Z,101194.28
2022-12-06T13:45:01.988Z,101192.59
2022-12-06T13:47:28.975Z,101191.66
2022-12-06T13:50:23.507Z,101193.44
2022-12-06T13:52:50.360Z,101195.97
2022-12-06T13:55:26.606Z,101200.47
2022-12-06T13:57:56.327Z,101198.72
2022-12-06T14:00:32.025Z,101201.28
2022-12-06T14:03:03.039Z,101197.72
2022-12-06T14:08:33.422Z,101204.84
2022-12-06T14:11:21.706Z,101202.28
2022-12-06T14:13:58.521Z,101206.66
2022-12-06T14:16:34.545Z,101204.72
2022-12-06T14:19:13.400Z,101200.28
2022-12-06T14:21:43.145Z,101195.97
2022-12-06T14:24:41.368Z,101195.72
2022-12-06T14:27:18.435Z,101187.75
2022-12-06T14:30:13.410Z,101189.50
2022-12-06T14:32:48.316Z,101193.84
2022-12-06T14:35:21.094Z,101192.13
2022-12-06T14:37:56.011Z,101196.50
2022-12-06T14:43:18.685Z,101195.63
2022-12-06T14:45:46.639Z,101190.31
2022-12-06T14:48:14.299Z,101192.03
2022-12-06T14:50:48.688Z,101193.81
2022-12-06T14:53:36.768Z,101198.25
2022-12-06T14:56:25.803Z,101191.31
2022-12-06T14:58:52.878Z,101186.72
2022-12-06T15:01:28.641Z,101185.91
2022-12-06T15:04:08.177Z,101187.69
2022-12-06T15:06:37.415Z,101185.84
2022-12-06T15:09:14.990Z,101182.34
2022-12-06T15:12:04.048Z,101179.78
2022-12-06T15:14:39.714Z,101171.03
2022-12-06T15:17:18.471Z,101180.59
2022-12-06T15:19:51.077Z,101183.38
2022-12-06T15:22:25.480Z,101183.50
2022-12-06T15:24:55.513Z,101176.59
2022-12-06T15:27:24.073Z,101172.25
2022-12-06T15:29:50.985Z,101167.88
2022-12-06T15:32:19.574Z,101169.44
2022-12-06T15:34:46.626Z,101171.13
2022-12-06T15:37:38.316Z,101159.81
2022-12-06T15:40:04.384Z,101169.31
2022-12-06T15:42:31.409Z,101164.06
2022-12-06T15:44:58.369Z,101166.72
2022-12-06T15:47:25.222Z,101164.94
2022-12-06T15:49:53.427Z,101156.25
2022-12-06T15:52:25.121Z,101159.00
2022-12-06T15:54:52.533Z,101159.81
2022-12-06T15:57:19.478Z,101157.25
2022-12-06T15:59:46.351Z,101167.69
2022-12-06T16:02:15.893Z,101148.34
2022-12-06T16:04:43.492Z,101153.56
2022-12-06T16:07:10.838Z,101148.31
2022-12-06T16:09:37.983Z,101157.94
2022-12-06T16:12:05.275Z,101151.88
2022-12-06T16:14:32.833Z,101149.31
2022-12-06T16:16:59.797Z,101146.78
2022-12-06T16:19:46.562Z,101152.94
2022-12-06T16:22:13.475Z,101148.38
2022-12-06T16:24:40.584Z,101150.25
2022-12-06T16:27:07.547Z,101138.88
2022-12-06T16:29:34.422Z,101136.34
2022-12-06T16:32:01.331Z,101142.44
2022-12-06T16:34:29.691Z,101139.88
2022-12-06T16:37:00.753Z,101133.72
2022-12-06T16:39:29.086Z,101135.50
2022-12-06T16:41:56.203Z,101138.28
2022-12-06T16:44:23.410Z,101141.72
2022-12-06T16:46:50.708Z,101135.59
2022-12-06T16:52:15.667Z,101132.03
2022-12-06T16:54:42.966Z,101132.09
2022-12-06T16:57:14.490Z,101134.78
2022-12-06T16:59:42.980Z,101132.19
2022-12-06T17:02:27.142Z,101128.78
2022-12-06T17:04:54.700Z,101129.66
2022-12-06T17:07:22.135Z,101133.19
2022-12-06T17:09:49.048Z,101129.69
2022-12-06T17:12:15.944Z,101127.78
2022-12-06T17:14:42.966Z,101122.47
2022-12-06T17:17:21.723Z,101125.13
2022-12-06T17:19:49.546Z,101127.66
2022-12-06T17:22:16.755Z,101127.00
2022-12-06T17:24:43.856Z,101119.94
2022-12-06T17:27:14.597Z,101122.75
2022-12-06T17:29:43.656Z,101131.28
2022-12-06T17:32:11.665Z,101123.34
2022-12-06T17:34:38.748Z,101132.09
2022-12-06T17:37:06.329Z,101119.84
2022-12-06T17:39:33.582Z,101119.00
2022-12-06T17:42:18.848Z,101114.63
2022-12-06T17:44:45.820Z,101108.53
2022-12-06T17:47:12.713Z,101115.50
2022-12-06T17:49:39.763Z,101112.88
2022-12-06T17:52:06.716Z,101112.00
2022-12-06T17:54:33.812Z,101115.50
2022-12-06T17:57:00.761Z,101115.59
2022-12-06T17:59:30.558Z,101104.28
2022-12-06T18:02:20.283Z,101113.81
2022-12-06T18:04:48.090Z,101103.34
2022-12-06T18:07:17.041Z,101101.66
2022-12-06T18:09:44.664Z,101101.63
2022-12-06T18:12:13.178Z,101103.38
2022-12-06T18:14:40.091Z,101103.38
2022-12-06T18:17:07.204Z,101102.53
2022-12-06T18:19:34.915Z,101092.09
2022-12-06T18:22:01.931Z,101095.53
2022-12-06T18:24:33.553Z,101089.41
2022-12-06T18:27:02.989Z,101084.03
2022-12-06T18:29:30.274Z,101076.22
2022-12-06T18:31:57.505Z,101083.19
2022-12-06T18:34:25.162Z,101082.31
2022-12-06T18:36:52.212Z,101082.31
2022-12-06T18:39:29.204Z,101085.84
2022-12-06T18:41:56.106Z,101077.97
2022-12-06T18:44:23.534Z,101074.44
2022-12-06T18:46:50.388Z,101069.16
2022-12-06T18:49:17.734Z,101070.84
2022-12-06T18:51:44.866Z,101068.25
2022-12-06T18:54:13.914Z,101068.38
2022-12-06T18:56:41.147Z,101067.41
2022-12-06T18:59:08.805Z,101067.50
2022-12-06T19:01:38.295Z,101069.31
2022-12-06T19:04:07.203Z,101068.41
2022-12-06T19:06:36.705Z,101064.84
2022-12-06T19:09:10.211Z,101064.00
2022-12-06T19:11:43.159Z,101057.78
2022-12-06T19:14:10.919Z,101057.78
2022-12-06T19:16:43.559Z,101053.28
2022-12-06T19:19:16.582Z,101056.88
2022-12-06T19:21:48.434Z,101046.41
2022-12-06T19:24:18.282Z,101052.53
2022-12-06T19:26:45.315Z,101049.88
2022-12-06T19:29:13.559Z,101040.28
2022-12-06T19:31:40.523Z,101037.72
2022-12-06T19:34:12.599Z,101034.13
2022-12-06T19:36:39.693Z,101034.09
2022-12-06T19:39:06.685Z,101037.63
2022-12-06T19:41:52.799Z,101028.88
2022-12-06T19:44:19.773Z,101033.19
2022-12-06T19:46:47.616Z,101022.72
2022-12-06T19:49:17.208Z,101021.88
2022-12-06T19:51:45.824Z,101020.16
2022-12-06T19:54:24.095Z,101016.69
2022-12-06T19:56:53.347Z,101021.09
2022-12-06T19:59:21.439Z,101021.03
2022-12-06T20:01:49.051Z,101018.50
2022-12-06T20:04:19.206Z,101021.13
2022-12-06T20:06:46.157Z,101015.00
2022-12-06T20:09:13.723Z,101005.34
2022-12-06T20:11:59.870Z,101010.63
2022-12-06T20:14:29.303Z,101005.34
2022-12-06T20:16:56.188Z,101004.38
2022-12-06T20:19:23.253Z,101000.03
2022-12-06T20:21:50.359Z,100996.53
2022-12-06T20:24:20.700Z,100993.09
2022-12-06T20:26:49.914Z,100987.78
2022-12-06T20:29:18.239Z,100979.00
2022-12-06T20:31:46.176Z,100987.75
2022-12-06T20:34:15.212Z,100985.09
2022-12-06T20:36:43.084Z,100987.75
2022-12-06T20:39:19.292Z,100986.09
2022-12-06T20:41:47.317Z,100982.63
2022-12-06T20:44:14.630Z,100982.59
2022-12-06T20:46:41.842Z,100987.81
2022-12-06T20:49:09.612Z,100980.78
2022-12-06T20:51:36.695Z,100979.06
2022-12-06T20:54:06.166Z,100972.13
2022-12-06T20:56:36.498Z,100985.25
2022-12-06T20:59:05.009Z,100976.56
2022-12-06T21:01:35.772Z,100986.19
2022-12-06T21:04:02.773Z,100979.16
2022-12-06T21:06:29.646Z,100984.38
2022-12-06T21:08:56.554Z,100980.91
2022-12-06T21:11:25.391Z,100977.44
2022-12-06T21:13:53.768Z,100973.00
2022-12-06T21:16:31.731Z,100969.56
2022-12-06T21:19:04.802Z,100979.19
2022-12-06T21:21:37.025Z,100973.00
2022-12-06T21:24:17.170Z,100967.75
2022-12-06T21:26:44.170Z,100970.34
2022-12-06T21:29:30.087Z,100970.31
2022-12-06T21:32:00.307Z,100978.19
2022-12-06T21:34:27.352Z,100975.56
2022-12-06T21:36:54.366Z,100968.56
2022-12-06T21:39:21.452Z,100968.50
2022-12-06T21:41:48.402Z,100967.59
2022-12-06T21:44:15.261Z,100978.13
2022-12-06T21:46:42.281Z,100972.00
2022-12-06T21:49:10.740Z,100976.41
2022-12-06T21:51:37.592Z,100967.66
2022-12-06T21:54:04.636Z,100966.72
2022-12-06T21:56:31.764Z,100973.69
2022-12-06T21:59:01.337Z,100964.06
2022-12-06T22:01:31.264Z,100962.31
2022-12-06T22:04:03.284Z,100965.81
2022-12-06T22:06:31.602Z,100960.53
2022-12-06T22:09:01.423Z,100956.97
2022-12-06T22:11:29.954Z,100949.06
2022-12-06T22:13:58.853Z,100950.81
2022-12-06T22:16:26.597Z,100939.50
2022-12-06T22:18:55.272Z,100933.34
2022-12-06T22:21:28.669Z,100927.25
2022-12-06T22:23:58.270Z,100924.56
2022-12-06T22:26:28.486Z,100928.09
2022-12-06T22:28:56.025Z,100927.16
2022-12-06T22:31:28.680Z,100927.25
2022-12-06T22:33:57.541Z,100924.69
2022-12-06T22:36:24.802Z,100921.13
2022-12-06T22:38:53.402Z,100919.41
2022-12-06T22:41:21.200Z,100917.69
2022-12-06T22:43:55.676Z,100925.50
2022-12-06T22:46:23.670Z,100920.31
2022-12-06T22:48:50.730Z,100929.03
2022-12-06T22:51:20.768Z,100918.47
2022-12-06T22:53:52.296Z,100915.88
2022-12-06T22:56:19.362Z,100905.31
2022-12-06T22:58:46.365Z,100907.03
2022-12-06T23:01:24.852Z,100908.75
2022-12-06T23:03:53.307Z,100904.38
2022-12-06T23:06:23.418Z,100900.88
2022-12-06T23:08:50.448Z,100896.50
2022-12-06T23:11:20.591Z,100888.66
2022-12-06T23:13:48.103Z,100885.28
2022-12-06T23:16:18.486Z,100885.31
2022-12-06T23:18:46.852Z,100880.03
2022-12-06T23:21:18.878Z,100883.53
2022-12-06T23:24:05.907Z,100887.03
2022-12-06T23:26:35.731Z,100888.81
2022-12-06T23:29:03.553Z,100885.31
2022-12-06T23:31:33.605Z,100886.19
2022-12-06T23:34:11.336Z,100889.69
2022-12-06T23:36:38.326Z,100894.06
2022-12-06T23:39:05.956Z,100884.41
2022-12-06T23:41:34.455Z,100885.31
2022-12-06T23:44:01.748Z,100882.69
2022-12-06T23:46:32.187Z,100872.13
2022-12-06T23:49:00.039Z,100880.91
2022-12-06T23:51:31.067Z,100880.91
2022-12-06T23:53:59.690Z,100879.13
2022-12-06T23:56:29.396Z,100873.88
2022-12-06T23:58:57.025Z,100875.56
